sensor_id;sensor_type;location;lat;lon;timestamp;temperature;humidity
9668;DHT22;4872;48.316;10.650;2024-02-15T05:07:10;6.70;99.90
9668;DHT22;4872;48.316;10.650;2024-02-15T05:09:37;6.60;99.90
9668;DHT22;4872;48.316;10.650;2024-02-15T05:12:04;6.60;99.90
9668;DHT22;4872;48.316;10.650;2024-02-15T05:14:31;6.60;99.90
9668;DHT22;4872;48.316;10.650;2024-02-15T05:16:58;6.60;99.80
9668;DHT22;4872;48.316;10.650;2024-02-15T05:19:24;6.50;99.60
9668;DHT22;4872;48.316;10.650;2024-02-15T05:21:51;6.40;99.90
9668;DHT22;4872;48.316;10.650;2024-02-15T05:24:20;6.30;99.90
9668;DHT22;4872;48.316;10.650;2024-02-15T05:26:47;6.20;99.90
9668;DHT22;4872;48.316;10.650;2024-02-15T05:29:15;6.10;99.80
9668;DHT22;4872;48.316;10.650;2024-02-15T05:31:43;6.10;99.60
9668;DHT22;4872;48.316;10.650;2024-02-15T05:34:11;6.00;99.80
9668;DHT22;4872;48.316;10.650;2024-02-15T05:36:38;6.00;99.90
9668;DHT22;4872;48.316;10.650;2024-02-15T05:39:05;5.90;99.90
9668;DHT22;4872;48.316;10.650;2024-02-15T05:41:34;5.80;99.90
9668;DHT22;4872;48.316;10.650;2024-02-15T05:44:00;5.70;99.90
9668;DHT22;4872;48.316;10.650;2024-02-15T05:46:30;5.80;99.90
9668;DHT22;4872;48.316;10.650;2024-02-15T05:48:56;5.70;99.70
9668;DHT22;4872;48.316;10.650;2024-02-15T05:51:24;5.70;99.60
9668;DHT22;4872;48.316;10.650;2024-02-15T05:53:51;5.70;99.40
9668;DHT22;4872;48.316;10.650;2024-02-15T05:56:23;5.70;99.50
9668;DHT22;4872;48.316;10.650;2024-02-15T05:58:52;5.80;99.40
9668;DHT22;4872;48.316;10.650;2024-02-15T06:01:19;5.70;99.50
9668;DHT22;4872;48.316;10.650;2024-02-15T06:03:46;5.80;99.50
9668;DHT22;4872;48.316;10.650;2024-02-15T06:06:13;5.70;99.30
9668;DHT22;4872;48.316;10.650;2024-02-15T06:08:40;5.70;99.40
9668;DHT22;4872;48.316;10.650;2024-02-15T06:11:07;5.60;99.40
9668;DHT22;4872;48.316;10.650;2024-02-15T06:13:35;5.60;99.50
9668;DHT22;4872;48.316;10.650;2024-02-15T06:16:04;5.50;99.40
9668;DHT22;4872;48.316;10.650;2024-02-15T06:18:35;5.50;99.40
9668;DHT22;4872;48.316;10.650;2024-02-15T06:21:03;5.50;99.40
9668;DHT22;4872;48.316;10.650;2024-02-15T06:23:31;5.50;99.20
9668;DHT22;4872;48.316;10.650;2024-02-15T06:25:59;5.50;99.10
9668;DHT22;4872;48.316;10.650;2024-02-15T06:28:26;5.50;99.10
9668;DHT22;4872;48.316;10.650;2024-02-15T06:31:11;5.40;99.20
9668;DHT22;4872;48.316;10.650;2024-02-15T06:33:56;5.40;99.00
9668;DHT22;4872;48.316;10.650;2024-02-15T06:36:46;5.60;99.00
9668;DHT22;4872;48.316;10.650;2024-02-15T06:39:30;5.50;99.00
9668;DHT22;4872;48.316;10.650;2024-02-15T06:42:12;5.50;99.40
9668;DHT22;4872;48.316;10.650;2024-02-15T06:44:41;5.30;99.30
9668;DHT22;4872;48.316;10.650;2024-02-15T06:47:09;5.30;99.40
9668;DHT22;4872;48.316;10.650;2024-02-15T06:49:37;5.40;99.60
9668;DHT22;4872;48.316;10.650;2024-02-15T06:52:06;5.30;99.60
9668;DHT22;4872;48.316;10.650;2024-02-15T06:54:33;5.40;99.90
9668;DHT22;4872;48.316;10.650;2024-02-15T06:57:01;5.50;99.90
9668;DHT22;4872;48.316;10.650;2024-02-15T06:59:28;5.60;99.80
9668;DHT22;4872;48.316;10.650;2024-02-15T07:01:55;5.60;99.90
9668;DHT22;4872;48.316;10.650;2024-02-15T07:04:23;5.70;99.80
9668;DHT22;4872;48.316;10.650;2024-02-15T07:06:51;5.80;99.70
9668;DHT22;4872;48.316;10.650;2024-02-15T07:09:20;5.90;99.40
9668;DHT22;4872;48.316;10.650;2024-02-15T07:11:48;6.10;99.40
9668;DHT22;4872;48.316;10.650;2024-02-15T07:14:15;6.20;99.40
9668;DHT22;4872;48.316;10.650;2024-02-15T07:16:44;6.50;99.00
9668;DHT22;4872;48.316;10.650;2024-02-15T07:19:11;6.70;99.00
9668;DHT22;4872;48.316;10.650;2024-02-15T07:21:40;6.80;99.00
9668;DHT22;4872;48.316;10.650;2024-02-15T07:24:07;7.20;98.10
9668;DHT22;4872;48.316;10.650;2024-02-15T07:26:35;7.50;97.90
9668;DHT22;4872;48.316;10.650;2024-02-15T07:29:02;7.80;97.30
9668;DHT22;4872;48.316;10.650;2024-02-15T07:31:31;8.20;97.20
9668;DHT22;4872;48.316;10.650;2024-02-15T07:33:58;8.40;96.50
9668;DHT22;4872;48.316;10.650;2024-02-15T07:36:25;8.30;96.30
9668;DHT22;4872;48.316;10.650;2024-02-15T07:38:54;8.30;96.60
9668;DHT22;4872;48.316;10.650;2024-02-15T07:41:23;8.40;96.70
9668;DHT22;4872;48.316;10.650;2024-02-15T07:43:51;8.90;96.70
9668;DHT22;4872;48.316;10.650;2024-02-15T07:46:19;9.30;96.40
9668;DHT22;4872;48.316;10.650;2024-02-15T07:48:47;9.60;96.20
9668;DHT22;4872;48.316;10.650;2024-02-15T07:51:15;10.20;94.90
9668;DHT22;4872;48.316;10.650;2024-02-15T07:53:43;10.60;94.10
9668;DHT22;4872;48.316;10.650;2024-02-15T07:56:12;10.30;93.50
9668;DHT22;4872;48.316;10.650;2024-02-15T07:58:39;10.20;93.90
9668;DHT22;4872;48.316;10.650;2024-02-15T08:01:08;10.50;93.30
9668;DHT22;4872;48.316;10.650;2024-02-15T08:03:36;10.30;93.80
9668;DHT22;4872;48.316;10.650;2024-02-15T08:06:03;10.30;93.90
9668;DHT22;4872;48.316;10.650;2024-02-15T08:08:32;10.80;93.40
9668;DHT22;4872;48.316;10.650;2024-02-15T08:11:02;10.90;93.80
9668;DHT22;4872;48.316;10.650;2024-02-15T08:13:30;11.20;93.80
9668;DHT22;4872;48.316;10.650;2024-02-15T08:15:57;11.20;93.20
9668;DHT22;4872;48.316;10.650;2024-02-15T08:18:23;11.00;93.30
9668;DHT22;4872;48.316;10.650;2024-02-15T08:20:51;10.70;93.20
9668;DHT22;4872;48.316;10.650;2024-02-15T08:23:18;10.70;93.60
9668;DHT22;4872;48.316;10.650;2024-02-15T08:25:44;10.70;93.70
9668;DHT22;4872;48.316;10.650;2024-02-15T08:28:11;10.80;93.00
9668;DHT22;4872;48.316;10.650;2024-02-15T08:30:40;11.10;93.50
9668;DHT22;4872;48.316;10.650;2024-02-15T08:33:07;11.60;93.40
9668;DHT22;4872;48.316;10.650;2024-02-15T08:35:36;12.00;93.20
9668;DHT22;4872;48.316;10.650;2024-02-15T08:38:03;12.30;92.60
9668;DHT22;4872;48.316;10.650;2024-02-15T08:40:31;12.60;92.00
9668;DHT22;4872;48.316;10.650;2024-02-15T08:42:58;13.10;91.60
9668;DHT22;4872;48.316;10.650;2024-02-15T08:45:25;13.50;91.40
9668;DHT22;4872;48.316;10.650;2024-02-15T08:47:53;13.90;90.80
9668;DHT22;4872;48.316;10.650;2024-02-15T08:50:20;14.30;90.70
9668;DHT22;4872;48.316;10.650;2024-02-15T08:52:49;14.60;90.00
9668;DHT22;4872;48.316;10.650;2024-02-15T08:55:16;15.10;89.90
9668;DHT22;4872;48.316;10.650;2024-02-15T08:57:43;15.20;88.90
9668;DHT22;4872;48.316;10.650;2024-02-15T09:00:11;15.50;87.90
9668;DHT22;4872;48.316;10.650;2024-02-15T09:02:42;15.80;88.00
9668;DHT22;4872;48.316;10.650;2024-02-15T09:05:10;15.90;87.80
9668;DHT22;4872;48.316;10.650;2024-02-15T09:07:40;16.10;87.30
9668;DHT22;4872;48.316;10.650;2024-02-15T09:10:08;16.10;86.70
9668;DHT22;4872;48.316;10.650;2024-02-15T09:12:36;16.20;86.60
9668;DHT22;4872;48.316;10.650;2024-02-15T09:15:06;16.40;86.80
9668;DHT22;4872;48.316;10.650;2024-02-15T09:17:33;16.70;86.10
9668;DHT22;4872;48.316;10.650;2024-02-15T09:20:06;17.00;84.70
9668;DHT22;4872;48.316;10.650;2024-02-15T09:22:34;17.20;84.80
9668;DHT22;4872;48.316;10.650;2024-02-15T09:25:02;17.50;84.00
9668;DHT22;4872;48.316;10.650;2024-02-15T09:27:29;17.60;83.30
9668;DHT22;4872;48.316;10.650;2024-02-15T09:29:55;17.80;82.00
9668;DHT22;4872;48.316;10.650;2024-02-15T09:32:22;18.00;82.90
9668;DHT22;4872;48.316;10.650;2024-02-15T09:34:49;18.20;82.00
9668;DHT22;4872;48.316;10.650;2024-02-15T09:37:16;18.50;81.50
9668;DHT22;4872;48.316;10.650;2024-02-15T09:39:44;18.60;80.20
9668;DHT22;4872;48.316;10.650;2024-02-15T09:42:11;18.80;80.30
9668;DHT22;4872;48.316;10.650;2024-02-15T09:44:38;19.10;79.90
9668;DHT22;4872;48.316;10.650;2024-02-15T09:47:06;18.90;77.40
9668;DHT22;4872;48.316;10.650;2024-02-15T09:49:35;18.80;79.50
9668;DHT22;4872;48.316;10.650;2024-02-15T09:52:03;19.00;78.90
9668;DHT22;4872;48.316;10.650;2024-02-15T09:54:30;19.40;78.10
9668;DHT22;4872;48.316;10.650;2024-02-15T09:57:01;19.60;78.30
9668;DHT22;4872;48.316;10.650;2024-02-15T09:59:28;19.90;77.90
9668;DHT22;4872;48.316;10.650;2024-02-15T10:01:58;20.00;76.30
9668;DHT22;4872;48.316;10.650;2024-02-15T10:04:25;19.80;74.60
9668;DHT22;4872;48.316;10.650;2024-02-15T10:06:52;19.70;75.70
9668;DHT22;4872;48.316;10.650;2024-02-15T10:09:29;19.70;75.80
9668;DHT22;4872;48.316;10.650;2024-02-15T10:11:59;19.90;76.00
9668;DHT22;4872;48.316;10.650;2024-02-15T10:14:26;19.90;75.40
9668;DHT22;4872;48.316;10.650;2024-02-15T10:16:54;19.70;76.00
9668;DHT22;4872;48.316;10.650;2024-02-15T10:19:21;19.30;76.70
9668;DHT22;4872;48.316;10.650;2024-02-15T10:22:06;18.70;76.30
9668;DHT22;4872;48.316;10.650;2024-02-15T10:24:33;18.70;76.70
9668;DHT22;4872;48.316;10.650;2024-02-15T10:27:02;18.80;76.80
9668;DHT22;4872;48.316;10.650;2024-02-15T10:29:30;19.00;77.20
9668;DHT22;4872;48.316;10.650;2024-02-15T10:31:59;19.30;77.80
9668;DHT22;4872;48.316;10.650;2024-02-15T10:34:35;19.50;76.70
9668;DHT22;4872;48.316;10.650;2024-02-15T10:37:11;19.10;75.60
9668;DHT22;4872;48.316;10.650;2024-02-15T10:39:41;19.30;76.30
9668;DHT22;4872;48.316;10.650;2024-02-15T10:42:27;19.30;75.60
9668;DHT22;4872;48.316;10.650;2024-02-15T10:44:54;19.30;75.10
9668;DHT22;4872;48.316;10.650;2024-02-15T10:47:21;19.30;76.20
9668;DHT22;4872;48.316;10.650;2024-02-15T10:50:03;19.20;74.00
9668;DHT22;4872;48.316;10.650;2024-02-15T10:52:31;19.40;76.30
9668;DHT22;4872;48.316;10.650;2024-02-15T10:58:19;20.20;74.50
9668;DHT22;4872;48.316;10.650;2024-02-15T11:00:47;20.50;73.50
9668;DHT22;4872;48.316;10.650;2024-02-15T11:03:29;21.00;74.40
9668;DHT22;4872;48.316;10.650;2024-02-15T11:06:11;21.40;73.90
9668;DHT22;4872;48.316;10.650;2024-02-15T11:08:39;21.10;72.60
9668;DHT22;4872;48.316;10.650;2024-02-15T11:11:15;21.00;72.60
9668;DHT22;4872;48.316;10.650;2024-02-15T11:13:43;20.40;72.00
9668;DHT22;4872;48.316;10.650;2024-02-15T11:16:39;20.00;72.30
9668;DHT22;4872;48.316;10.650;2024-02-15T11:19:06;19.60;71.70
9668;DHT22;4872;48.316;10.650;2024-02-15T11:21:52;20.00;72.90
9668;DHT22;4872;48.316;10.650;2024-02-15T11:24:25;20.30;72.70
9668;DHT22;4872;48.316;10.650;2024-02-15T11:26:58;19.80;71.10
9668;DHT22;4872;48.316;10.650;2024-02-15T11:29:51;19.30;72.20
9668;DHT22;4872;48.316;10.650;2024-02-15T11:32:35;19.10;72.10
9668;DHT22;4872;48.316;10.650;2024-02-15T11:35:05;19.20;73.00
9668;DHT22;4872;48.316;10.650;2024-02-15T11:37:55;19.50;72.90
9668;DHT22;4872;48.316;10.650;2024-02-15T11:40:24;19.70;72.70
9668;DHT22;4872;48.316;10.650;2024-02-15T11:42:53;20.10;72.80
9668;DHT22;4872;48.316;10.650;2024-02-15T11:45:21;20.60;72.40
9668;DHT22;4872;48.316;10.650;2024-02-15T11:47:50;20.60;70.60
9668;DHT22;4872;48.316;10.650;2024-02-15T11:50:18;20.50;70.60
9668;DHT22;4872;48.316;10.650;2024-02-15T11:52:46;20.10;70.50
9668;DHT22;4872;48.316;10.650;2024-02-15T11:55:17;20.60;71.00
9668;DHT22;4872;48.316;10.650;2024-02-15T11:57:53;21.10;70.40
9668;DHT22;4872;48.316;10.650;2024-02-15T12:00:29;21.30;70.10
9668;DHT22;4872;48.316;10.650;2024-02-15T12:03:15;22.00;69.30
9668;DHT22;4872;48.316;10.650;2024-02-15T12:06:00;22.50;68.30
9668;DHT22;4872;48.316;10.650;2024-02-15T12:08:45;22.90;68.00
9668;DHT22;4872;48.316;10.650;2024-02-15T12:11:29;23.20;67.00
9668;DHT22;4872;48.316;10.650;2024-02-15T12:14:14;23.50;66.40
9668;DHT22;4872;48.316;10.650;2024-02-15T12:17:02;23.70;66.60
9668;DHT22;4872;48.316;10.650;2024-02-15T12:19:48;24.00;66.40
9668;DHT22;4872;48.316;10.650;2024-02-15T12:22:20;24.50;66.00
9668;DHT22;4872;48.316;10.650;2024-02-15T12:24:55;25.10;64.00
9668;DHT22;4872;48.316;10.650;2024-02-15T12:27:23;25.20;63.20
9668;DHT22;4872;48.316;10.650;2024-02-15T12:29:53;25.20;63.10
9668;DHT22;4872;48.316;10.650;2024-02-15T12:32:23;25.20;62.80
9668;DHT22;4872;48.316;10.650;2024-02-15T12:34:50;25.60;61.70
9668;DHT22;4872;48.316;10.650;2024-02-15T12:37:18;25.90;60.80
9668;DHT22;4872;48.316;10.650;2024-02-15T12:39:49;25.60;60.60
9668;DHT22;4872;48.316;10.650;2024-02-15T12:42:16;25.60;59.80
9668;DHT22;4872;48.316;10.650;2024-02-15T12:44:45;25.60;60.40
9668;DHT22;4872;48.316;10.650;2024-02-15T12:47:23;24.90;59.40
9668;DHT22;4872;48.316;10.650;2024-02-15T12:49:50;24.60;60.60
9668;DHT22;4872;48.316;10.650;2024-02-15T12:52:34;24.20;60.10
9668;DHT22;4872;48.316;10.650;2024-02-15T12:55:12;23.20;61.30
9668;DHT22;4872;48.316;10.650;2024-02-15T12:57:40;22.60;62.50
9668;DHT22;4872;48.316;10.650;2024-02-15T13:00:10;22.00;62.10
9668;DHT22;4872;48.316;10.650;2024-02-15T13:02:41;21.70;63.10
9668;DHT22;4872;48.316;10.650;2024-02-15T13:05:08;21.20;63.30
9668;DHT22;4872;48.316;10.650;2024-02-15T13:07:36;20.60;63.20
9668;DHT22;4872;48.316;10.650;2024-02-15T13:10:03;20.20;64.10
9668;DHT22;4872;48.316;10.650;2024-02-15T13:12:35;20.50;65.60
9668;DHT22;4872;48.316;10.650;2024-02-15T13:15:03;20.00;66.30
9668;DHT22;4872;48.316;10.650;2024-02-15T13:17:31;20.20;66.00
9668;DHT22;4872;48.316;10.650;2024-02-15T13:20:00;20.30;66.70
9668;DHT22;4872;48.316;10.650;2024-02-15T13:22:32;20.30;65.10
9668;DHT22;4872;48.316;10.650;2024-02-15T13:25:00;20.30;65.30
9668;DHT22;4872;48.316;10.650;2024-02-15T13:27:29;20.30;65.10
9668;DHT22;4872;48.316;10.650;2024-02-15T13:29:57;20.00;65.00
9668;DHT22;4872;48.316;10.650;2024-02-15T13:32:24;19.70;65.20
9668;DHT22;4872;48.316;10.650;2024-02-15T13:34:51;19.60;66.80
9668;DHT22;4872;48.316;10.650;2024-02-15T13:37:23;19.50;66.90
9668;DHT22;4872;48.316;10.650;2024-02-15T13:39:50;19.40;66.70
9668;DHT22;4872;48.316;10.650;2024-02-15T13:42:19;19.40;66.60
9668;DHT22;4872;48.316;10.650;2024-02-15T13:44:47;19.30;66.50
9668;DHT22;4872;48.316;10.650;2024-02-15T13:47:14;19.20;66.60
9668;DHT22;4872;48.316;10.650;2024-02-15T13:49:42;19.20;67.60
9668;DHT22;4872;48.316;10.650;2024-02-15T13:52:09;19.30;67.70
9668;DHT22;4872;48.316;10.650;2024-02-15T13:54:38;19.10;68.10
9668;DHT22;4872;48.316;10.650;2024-02-15T13:57:05;19.10;67.50
9668;DHT22;4872;48.316;10.650;2024-02-15T13:59:32;19.00;68.20
9668;DHT22;4872;48.316;10.650;2024-02-15T14:02:00;18.90;67.60
9668;DHT22;4872;48.316;10.650;2024-02-15T14:04:32;18.80;67.90
9668;DHT22;4872;48.316;10.650;2024-02-15T14:06:59;18.80;67.90
9668;DHT22;4872;48.316;10.650;2024-02-15T14:09:28;18.80;68.30
9668;DHT22;4872;48.316;10.650;2024-02-15T14:11:57;18.70;67.80
9668;DHT22;4872;48.316;10.650;2024-02-15T14:14:24;18.80;68.00
9668;DHT22;4872;48.316;10.650;2024-02-15T14:16:53;18.60;69.50
9668;DHT22;4872;48.316;10.650;2024-02-15T14:19:20;18.30;70.10
9668;DHT22;4872;48.316;10.650;2024-02-15T14:21:47;18.30;70.70
9668;DHT22;4872;48.316;10.650;2024-02-15T14:24:13;18.00;70.60
9668;DHT22;4872;48.316;10.650;2024-02-15T14:26:40;17.90;71.20
9668;DHT22;4872;48.316;10.650;2024-02-15T14:29:08;17.70;71.60
9668;DHT22;4872;48.316;10.650;2024-02-15T14:31:36;17.70;72.20
9668;DHT22;4872;48.316;10.650;2024-02-15T14:34:20;17.60;72.00
9668;DHT22;4872;48.316;10.650;2024-02-15T14:36:47;17.70;71.90
9668;DHT22;4872;48.316;10.650;2024-02-15T14:39:13;17.70;72.70
9668;DHT22;4872;48.316;10.650;2024-02-15T14:41:41;17.80;72.60
9668;DHT22;4872;48.316;10.650;2024-02-15T14:44:10;17.80;72.40
9668;DHT22;4872;48.316;10.650;2024-02-15T14:46:38;17.70;72.40
9668;DHT22;4872;48.316;10.650;2024-02-15T14:49:06;17.70;71.90
9668;DHT22;4872;48.316;10.650;2024-02-15T14:51:33;17.40;71.50
9668;DHT22;4872;48.316;10.650;2024-02-15T14:54:02;17.20;71.10
9668;DHT22;4872;48.316;10.650;2024-02-15T14:56:29;16.70;71.30
9668;DHT22;4872;48.316;10.650;2024-02-15T14:58:58;16.40;72.20
9668;DHT22;4872;48.316;10.650;2024-02-15T15:01:27;16.10;72.40
9668;DHT22;4872;48.316;10.650;2024-02-15T15:03:55;15.80;72.70
9668;DHT22;4872;48.316;10.650;2024-02-15T15:06:24;15.60;73.40
9668;DHT22;4872;48.316;10.650;2024-02-15T15:09:08;15.50;73.90
9668;DHT22;4872;48.316;10.650;2024-02-15T15:11:52;15.50;74.50
9668;DHT22;4872;48.316;10.650;2024-02-15T15:14:36;15.50;75.10
9668;DHT22;4872;48.316;10.650;2024-02-15T15:17:05;15.50;75.00
9668;DHT22;4872;48.316;10.650;2024-02-15T15:19:35;15.60;74.70
9668;DHT22;4872;48.316;10.650;2024-02-15T15:22:02;15.60;74.60
9668;DHT22;4872;48.316;10.650;2024-02-15T15:24:30;15.50;74.10
9668;DHT22;4872;48.316;10.650;2024-02-15T15:26:58;15.40;74.10
9668;DHT22;4872;48.316;10.650;2024-02-15T15:29:25;15.40;74.30
9668;DHT22;4872;48.316;10.650;2024-02-15T15:31:52;15.30;74.00
9668;DHT22;4872;48.316;10.650;2024-02-15T15:34:20;15.10;74.50
9668;DHT22;4872;48.316;10.650;2024-02-15T15:36:47;15.10;75.00
9668;DHT22;4872;48.316;10.650;2024-02-15T15:39:15;14.90;75.20
9668;DHT22;4872;48.316;10.650;2024-02-15T15:41:44;14.90;75.10
9668;DHT22;4872;48.316;10.650;2024-02-15T15:44:10;14.80;75.60
9668;DHT22;4872;48.316;10.650;2024-02-15T15:46:37;14.80;75.10
9668;DHT22;4872;48.316;10.650;2024-02-15T15:49:04;14.70;75.60
9668;DHT22;4872;48.316;10.650;2024-02-15T15:51:33;14.60;75.70
9668;DHT22;4872;48.316;10.650;2024-02-15T15:54:00;14.50;75.80
9668;DHT22;4872;48.316;10.650;2024-02-15T15:56:27;14.50;75.70
9668;DHT22;4872;48.316;10.650;2024-02-15T15:58:54;14.50;75.90
9668;DHT22;4872;48.316;10.650;2024-02-15T16:01:23;14.40;76.00
9668;DHT22;4872;48.316;10.650;2024-02-15T16:03:49;14.30;76.20
9668;DHT22;4872;48.316;10.650;2024-02-15T16:06:17;14.30;76.30
9668;DHT22;4872;48.316;10.650;2024-02-15T16:08:45;14.20;76.50
9668;DHT22;4872;48.316;10.650;2024-02-15T16:11:14;14.20;76.70
9668;DHT22;4872;48.316;10.650;2024-02-15T16:13:42;14.20;76.80
9668;DHT22;4872;48.316;10.650;2024-02-15T16:16:12;14.10;76.40
9668;DHT22;4872;48.316;10.650;2024-02-15T16:18:39;14.10;76.50
9668;DHT22;4872;48.316;10.650;2024-02-15T16:21:07;14.00;76.80
9668;DHT22;4872;48.316;10.650;2024-02-15T16:23:34;13.90;76.80
9668;DHT22;4872;48.316;10.650;2024-02-15T16:26:03;13.80;76.90
9668;DHT22;4872;48.316;10.650;2024-02-15T16:28:31;13.80;77.00
9668;DHT22;4872;48.316;10.650;2024-02-15T16:30:58;13.70;77.20
9668;DHT22;4872;48.316;10.650;2024-02-15T16:33:25;13.70;77.40
9668;DHT22;4872;48.316;10.650;2024-02-15T16:35:52;13.70;77.70
9668;DHT22;4872;48.316;10.650;2024-02-15T16:38:19;13.60;78.20
9668;DHT22;4872;48.316;10.650;2024-02-15T16:40:45;13.50;79.00
9668;DHT22;4872;48.316;10.650;2024-02-15T16:43:14;13.40;79.90
9668;DHT22;4872;48.316;10.650;2024-02-15T16:45:41;13.20;80.40
9668;DHT22;4872;48.316;10.650;2024-02-15T16:48:08;13.20;81.00
9668;DHT22;4872;48.316;10.650;2024-02-15T16:50:35;13.20;81.50
9668;DHT22;4872;48.316;10.650;2024-02-15T16:53:06;13.10;81.70
9668;DHT22;4872;48.316;10.650;2024-02-15T16:55:34;13.00;81.70
9668;DHT22;4872;48.316;10.650;2024-02-15T16:58:01;12.90;81.90
9668;DHT22;4872;48.316;10.650;2024-02-15T17:00:30;12.80;81.60
9668;DHT22;4872;48.316;10.650;2024-02-15T17:02:57;12.70;81.70
9668;DHT22;4872;48.316;10.650;2024-02-15T17:05:24;12.60;81.90
9668;DHT22;4872;48.316;10.650;2024-02-15T17:07:52;12.50;82.00
9668;DHT22;4872;48.316;10.650;2024-02-15T17:10:21;12.50;82.30
9668;DHT22;4872;48.316;10.650;2024-02-15T17:12:50;12.40;82.80
9668;DHT22;4872;48.316;10.650;2024-02-15T17:15:17;12.30;82.90
9668;DHT22;4872;48.316;10.650;2024-02-15T17:17:45;12.30;82.80
9668;DHT22;4872;48.316;10.650;2024-02-15T17:20:13;12.20;82.80
9668;DHT22;4872;48.316;10.650;2024-02-15T17:22:45;12.20;83.10
9668;DHT22;4872;48.316;10.650;2024-02-15T17:25:13;12.10;83.60
9668;DHT22;4872;48.316;10.650;2024-02-15T17:27:40;12.00;83.60
9668;DHT22;4872;48.316;10.650;2024-02-15T17:30:09;12.10;83.50
9668;DHT22;4872;48.316;10.650;2024-02-15T17:32:37;12.10;83.30
9668;DHT22;4872;48.316;10.650;2024-02-15T17:35:06;12.00;83.30
9668;DHT22;4872;48.316;10.650;2024-02-15T17:37:38;12.00;83.50
9668;DHT22;4872;48.316;10.650;2024-02-15T17:40:06;12.00;83.70
9668;DHT22;4872;48.316;10.650;2024-02-15T17:42:36;12.00;84.20
9668;DHT22;4872;48.316;10.650;2024-02-15T17:48:25;11.90;85.10
9668;DHT22;4872;48.316;10.650;2024-02-15T17:50:54;11.80;85.50
9668;DHT22;4872;48.316;10.650;2024-02-15T17:53:21;11.80;85.70
9668;DHT22;4872;48.316;10.650;2024-02-15T17:55:49;11.70;85.80
9668;DHT22;4872;48.316;10.650;2024-02-15T17:58:17;11.50;86.20
9668;DHT22;4872;48.316;10.650;2024-02-15T18:00:44;11.60;86.70
9668;DHT22;4872;48.316;10.650;2024-02-15T18:03:11;11.50;86.80
9668;DHT22;4872;48.316;10.650;2024-02-15T18:05:38;11.50;86.60
9668;DHT22;4872;48.316;10.650;2024-02-15T18:08:12;11.60;86.80
9668;DHT22;4872;48.316;10.650;2024-02-15T18:10:40;11.50;86.70
9668;DHT22;4872;48.316;10.650;2024-02-15T18:13:06;11.50;86.90
9668;DHT22;4872;48.316;10.650;2024-02-15T18:15:34;11.40;87.00
9668;DHT22;4872;48.316;10.650;2024-02-15T18:18:05;11.50;87.10
9668;DHT22;4872;48.316;10.650;2024-02-15T18:20:32;11.30;87.00
9668;DHT22;4872;48.316;10.650;2024-02-15T18:22:58;11.20;87.40
9668;DHT22;4872;48.316;10.650;2024-02-15T18:25:27;11.10;87.90
9668;DHT22;4872;48.316;10.650;2024-02-15T18:27:54;11.10;88.20
9668;DHT22;4872;48.316;10.650;2024-02-15T18:30:21;11.10;88.40
9668;DHT22;4872;48.316;10.650;2024-02-15T18:32:55;11.10;88.50
9668;DHT22;4872;48.316;10.650;2024-02-15T18:35:22;11.10;88.70
9668;DHT22;4872;48.316;10.650;2024-02-15T18:37:50;11.10;88.50
9668;DHT22;4872;48.316;10.650;2024-02-15T18:40:17;10.90;88.70
9668;DHT22;4872;48.316;10.650;2024-02-15T18:46:38;10.70;88.90
9668;DHT22;4872;48.316;10.650;2024-02-15T18:49:05;10.80;89.60
9668;DHT22;4872;48.316;10.650;2024-02-15T18:51:32;10.70;90.10
9668;DHT22;4872;48.316;10.650;2024-02-15T18:54:01;10.60;90.00
9668;DHT22;4872;48.316;10.650;2024-02-15T18:56:28;10.60;90.20
9668;DHT22;4872;48.316;10.650;2024-02-15T18:58:55;10.50;90.30
9668;DHT22;4872;48.316;10.650;2024-02-15T19:01:21;10.50;90.40
9668;DHT22;4872;48.316;10.650;2024-02-15T19:03:51;10.40;90.50
9668;DHT22;4872;48.316;10.650;2024-02-15T19:06:18;10.40;90.50
9668;DHT22;4872;48.316;10.650;2024-02-15T19:08:45;10.50;90.50
9668;DHT22;4872;48.316;10.650;2024-02-15T19:11:12;10.50;90.70
9668;DHT22;4872;48.316;10.650;2024-02-15T19:13:38;10.40;90.90
9668;DHT22;4872;48.316;10.650;2024-02-15T19:16:06;10.40;91.20
9668;DHT22;4872;48.316;10.650;2024-02-15T19:18:33;10.40;91.30
9668;DHT22;4872;48.316;10.650;2024-02-15T19:21:02;10.40;91.50
9668;DHT22;4872;48.316;10.650;2024-02-15T19:23:30;10.40;91.60
9668;DHT22;4872;48.316;10.650;2024-02-15T19:25:56;10.40;91.60
9668;DHT22;4872;48.316;10.650;2024-02-15T19:28:28;10.40;91.60
9668;DHT22;4872;48.316;10.650;2024-02-15T19:31:05;10.40;91.60
9668;DHT22;4872;48.316;10.650;2024-02-15T19:33:31;10.40;91.50
9668;DHT22;4872;48.316;10.650;2024-02-15T19:35:58;10.40;91.20
9668;DHT22;4872;48.316;10.650;2024-02-15T19:38:26;10.40;91.00
9668;DHT22;4872;48.316;10.650;2024-02-15T19:40:53;10.30;90.90
9668;DHT22;4872;48.316;10.650;2024-02-15T19:43:20;10.30;90.90
9668;DHT22;4872;48.316;10.650;2024-02-15T19:45:47;10.20;91.10
9668;DHT22;4872;48.316;10.650;2024-02-15T19:48:14;10.10;91.20
9668;DHT22;4872;48.316;10.650;2024-02-15T19:50:42;10.00;91.00
9668;DHT22;4872;48.316;10.650;2024-02-15T19:53:09;9.90;91.60
9668;DHT22;4872;48.316;10.650;2024-02-15T19:55:37;10.00;91.40
9668;DHT22;4872;48.316;10.650;2024-02-15T19:58:04;9.90;91.80
9668;DHT22;4872;48.316;10.650;2024-02-15T20:00:31;9.70;91.90
9668;DHT22;4872;48.316;10.650;2024-02-15T20:02:58;9.70;92.10
9668;DHT22;4872;48.316;10.650;2024-02-15T20:05:25;9.60;92.10
9668;DHT22;4872;48.316;10.650;2024-02-15T20:07:52;9.60;92.10
9668;DHT22;4872;48.316;10.650;2024-02-15T20:10:19;9.50;92.10
9668;DHT22;4872;48.316;10.650;2024-02-15T20:12:49;9.50;92.00
9668;DHT22;4872;48.316;10.650;2024-02-15T20:15:16;9.70;92.20
9668;DHT22;4872;48.316;10.650;2024-02-15T20:17:43;9.40;91.90
9668;DHT22;4872;48.316;10.650;2024-02-15T20:20:10;9.30;92.00
9668;DHT22;4872;48.316;10.650;2024-02-15T20:22:41;9.30;92.20
9668;DHT22;4872;48.316;10.650;2024-02-15T20:25:08;9.30;92.10
9668;DHT22;4872;48.316;10.650;2024-02-15T20:27:36;9.20;92.20
9668;DHT22;4872;48.316;10.650;2024-02-15T20:30:05;9.10;92.30
9668;DHT22;4872;48.316;10.650;2024-02-15T20:32:32;9.10;92.60
9668;DHT22;4872;48.316;10.650;2024-02-15T20:34:59;9.10;92.50
9668;DHT22;4872;48.316;10.650;2024-02-15T20:37:26;9.10;92.70
9668;DHT22;4872;48.316;10.650;2024-02-15T20:39:52;9.10;92.70
9668;DHT22;4872;48.316;10.650;2024-02-15T20:42:20;8.90;92.60
9668;DHT22;4872;48.316;10.650;2024-02-15T20:44:47;8.80;93.10
9668;DHT22;4872;48.316;10.650;2024-02-15T20:47:15;8.60;93.20
9668;DHT22;4872;48.316;10.650;2024-02-15T20:49:44;8.50;93.30
9668;DHT22;4872;48.316;10.650;2024-02-15T20:52:11;8.40;93.40
9668;DHT22;4872;48.316;10.650;2024-02-15T20:54:38;8.40;93.50
9668;DHT22;4872;48.316;10.650;2024-02-15T20:57:05;8.40;93.50
9668;DHT22;4872;48.316;10.650;2024-02-15T20:59:33;8.40;93.70
9668;DHT22;4872;48.316;10.650;2024-02-15T21:02:02;8.30;93.80
9668;DHT22;4872;48.316;10.650;2024-02-15T21:04:30;8.40;93.90
9668;DHT22;4872;48.316;10.650;2024-02-15T21:06:57;8.40;93.80
9668;DHT22;4872;48.316;10.650;2024-02-15T21:09:24;8.40;93.90
9668;DHT22;4872;48.316;10.650;2024-02-15T21:11:50;8.40;93.90
9668;DHT22;4872;48.316;10.650;2024-02-15T21:14:18;8.40;93.90
9668;DHT22;4872;48.316;10.650;2024-02-15T21:16:44;8.40;94.10
9668;DHT22;4872;48.316;10.650;2024-02-15T21:19:12;8.30;94.10